Time;durP1;ratioP1;P1;durP2;ratioP2;P2;SDS_P1;SDS_P2;PMS_P1;PMS_P2;Temp;Humidity;BMP_temperature;BMP_pressure;BME280_temperature;BME280_humidity;BME280_pressure;Samples;Min_cycle;Max_cycle;Signal;HPM_P1;HPM_P2
2023/04/23 00:00:31;;;;;;;36.55;21.52;;;;;;;12.45;82.92;99100.13;5059660;28;20370;-75
2023/04/23 00:03:01;;;;;;;47.22;27.10;;;;;;;12.65;82.62;99092.75;5060033;28;20558;-74
2023/04/23 00:05:28;;;;;;;44.30;25.95;;;;;;;12.64;82.42;99093.88;5058914;28;20505;-74
2023/04/23 00:07:53;;;;;;;40.47;22.77;;;;;;;12.59;82.36;99102.16;5060334;28;20048;-75
2023/04/23 00:10:19;;;;;;;39.40;23.77;;;;;;;12.65;82.88;99092.75;5059813;28;20036;-75
2023/04/23 00:12:45;;;;;;;37.13;22.95;;;;;;;12.71;82.72;99079.84;5060476;28;20044;-75
2023/04/23 00:15:11;;;;;;;37.30;23.30;;;;;;;12.73;82.53;99089.34;5059435;28;20032;-75
2023/04/23 00:17:36;;;;;;;45.13;22.83;;;;;;;12.75;82.05;99091.00;5059773;28;20146;-74
2023/04/23 00:20:02;;;;;;;43.20;24.63;;;;;;;12.72;82.96;99087.75;5060497;28;21169;-75
2023/04/23 00:22:27;;;;;;;47.83;26.08;;;;;;;12.67;83.07;99079.59;5059471;28;20360;-74
2023/04/23 00:24:52;;;;;;;38.83;22.50;;;;;;;12.66;82.83;99082.63;5059708;28;20064;-75
2023/04/23 00:27:19;;;;;;;32.50;19.80;;;;;;;12.66;82.96;99083.44;5059810;28;20269;-75
2023/04/23 00:29:45;;;;;;;31.58;18.65;;;;;;;12.55;83.14;99076.50;5060147;28;20063;-75
2023/04/23 00:32:10;;;;;;;24.42;15.48;;;;;;;12.41;82.79;99077.22;5059314;28;20045;-77
2023/04/23 00:34:35;;;;;;;30.20;16.60;;;;;;;12.43;83.17;99072.28;5058939;28;20151;-75
2023/04/23 00:37:04;;;;;;;29.70;16.27;;;;;;;12.52;83.02;99071.63;5058970;28;20116;-75
2023/04/23 00:39:30;;;;;;;29.80;18.10;;;;;;;12.57;82.63;99074.31;5058137;28;20253;-74
2023/04/23 00:41:55;;;;;;;28.27;15.47;;;;;;;12.50;82.61;99071.91;5059690;28;20040;-75
2023/04/23 00:44:21;;;;;;;25.48;15.50;;;;;;;12.45;82.57;99083.72;5059066;28;20377;-74
2023/04/23 00:46:46;;;;;;;28.20;15.88;;;;;;;12.48;82.54;99076.88;5058389;28;20036;-74
2023/04/23 00:49:13;;;;;;;33.00;17.52;;;;;;;12.45;82.23;99072.78;5058233;28;20036;-74
2023/04/23 00:51:38;;;;;;;24.33;14.70;;;;;;;12.43;82.44;99080.47;5059444;28;20106;-74
2023/04/23 00:54:03;;;;;;;27.05;15.82;;;;;;;12.36;82.14;99069.09;5059142;28;20648;-74
2023/04/23 00:56:29;;;;;;;25.17;14.93;;;;;;;12.23;82.64;99076.91;5057992;28;20021;-74
2023/04/23 00:58:55;;;;;;;28.10;16.58;;;;;;;12.29;82.68;99074.09;5058900;28;20024;-74
2023/04/23 01:01:20;;;;;;;26.08;16.40;;;;;;;12.33;82.29;99069.69;5058101;28;20509;-75
2023/04/23 01:03:51;;;;;;;32.28;19.33;;;;;;;12.45;82.03;99075.53;5057263;28;20119;-75
2023/04/23 01:06:17;;;;;;;29.70;17.48;;;;;;;12.44;82.11;99073.91;5057489;28;21091;-74
2023/04/23 01:08:42;;;;;;;33.60;19.90;;;;;;;12.41;82.21;99076.44;5058902;28;20044;-74
2023/04/23 01:11:08;;;;;;;31.17;17.30;;;;;;;12.52;81.93;99079.81;5058218;28;20581;-75
2023/04/23 01:13:34;;;;;;;25.23;14.93;;;;;;;12.43;82.01;99075.00;5057529;28;20094;-74
2023/04/23 01:15:59;;;;;;;30.38;17.27;;;;;;;12.43;81.76;99077.75;5057139;28;20024;-75
2023/04/23 01:18:25;;;;;;;32.50;20.40;;;;;;;12.43;82.10;99079.66;5058343;28;20032;-75
2023/04/23 01:20:50;;;;;;;26.25;16.80;;;;;;;12.37;82.01;99078.91;5058687;28;20040;-75
2023/04/23 01:23:16;;;;;;;24.70;15.45;;;;;;;12.34;82.26;99074.06;5055987;28;20174;-74
2023/04/23 01:25:42;;;;;;;29.20;15.90;;;;;;;12.34;81.49;99065.84;5058747;28;20056;-74
2023/04/23 01:28:08;;;;;;;28.55;16.08;;;;;;;12.31;81.89;99061.78;5058030;28;20045;-74
2023/04/23 01:30:34;;;;;;;28.13;16.60;;;;;;;12.34;81.93;99068.59;5058273;28;20028;-75
2023/04/23 01:33:01;;;;;;;37.38;20.42;;;;;;;12.40;81.89;99075.63;5058777;28;20056;-75
2023/04/23 01:35:27;;;;;;;30.30;18.27;;;;;;;12.40;81.49;99070.16;5058198;28;20028;-74
2023/04/23 01:37:54;;;;;;;27.65;17.65;;;;;;;12.31;81.89;99075.44;5058214;28;20033;-75
2023/04/23 01:40:20;;;;;;;29.30;17.08;;;;;;;12.30;81.48;99071.09;5058442;28;20055;-75
2023/04/23 01:42:49;;;;;;;30.15;16.33;;;;;;;12.24;81.62;99073.06;5058320;28;20049;-75
2023/04/23 01:45:18;;;;;;;23.73;14.60;;;;;;;12.16;81.96;99071.00;5058685;28;20067;-75
2023/04/23 01:47:43;;;;;;;29.15;17.10;;;;;;;12.20;82.04;99072.03;5057792;28;20113;-75
2023/04/23 01:50:09;;;;;;;32.53;18.20;;;;;;;12.25;82.19;99069.22;5060232;28;20171;-74
2023/04/23 01:52:35;;;;;;;28.63;15.98;;;;;;;12.17;82.06;99069.06;5062308;28;20394;-74
2023/04/23 01:55:01;;;;;;;30.55;17.50;;;;;;;12.20;81.72;99063.84;5061463;28;20046;-74
2023/04/23 01:57:26;;;;;;;32.35;18.45;;;;;;;12.22;81.55;99071.75;5061513;28;20444;-75
2023/04/23 01:59:57;;;;;;;32.75;18.40;;;;;;;12.23;81.40;99065.97;5061988;28;20911;-75
2023/04/23 02:02:22;;;;;;;31.67;18.35;;;;;;;12.20;81.47;99072.03;5061186;28;20040;-74
2023/04/23 02:04:49;;;;;;;33.67;17.90;;;;;;;12.29;80.91;99072.19;5061271;28;20584;-74
2023/04/23 02:07:14;;;;;;;25.92;15.48;;;;;;;12.12;81.23;99072.69;5061342;28;20673;-74
2023/04/23 02:09:39;;;;;;;28.13;15.48;;;;;;;12.11;81.94;99074.59;5061762;28;20036;-75
2023/04/23 02:12:05;;;;;;;28.80;16.10;;;;;;;12.22;81.45;99064.38;5061926;28;20371;-74
2023/04/23 02:14:30;;;;;;;27.83;16.27;;;;;;;12.21;81.22;99062.72;5060923;28;20304;-74
2023/04/23 02:16:56;;;;;;;28.33;15.93;;;;;;;12.15;81.53;99063.91;5062806;28;20040;-75
2023/04/23 02:19:22;;;;;;;24.80;13.98;;;;;;;12.14;81.26;99067.75;5062729;28;20047;-75
2023/04/23 02:21:47;;;;;;;32.67;18.80;;;;;;;12.20;81.04;99066.59;5062141;28;20029;-75
2023/04/23 02:24:12;;;;;;;31.07;18.73;;;;;;;12.12;81.27;99065.28;5060678;28;20119;-74
2023/04/23 02:26:37;;;;;;;30.00;17.97;;;;;;;12.10;81.32;99063.94;5061859;28;20678;-74
2023/04/23 02:29:03;;;;;;;31.58;17.73;;;;;;;11.99;81.92;99069.53;5062855;28;20272;-75
2023/04/23 02:31:28;;;;;;;31.67;18.02;;;;;;;11.91;82.11;99064.69;5060784;28;20098;-74
2023/04/23 02:33:53;;;;;;;33.27;16.87;;;;;;;11.95;82.03;99065.75;5060851;28;21237;-75
2023/04/23 02:36:18;;;;;;;31.77;18.27;;;;;;;12.00;81.58;99062.16;5061933;28;20269;-75
2023/04/23 02:38:44;;;;;;;27.20;17.15;;;;;;;11.91;81.92;99059.25;5061106;28;20680;-75
2023/04/23 02:41:10;;;;;;;30.92;17.08;;;;;;;11.88;82.13;99051.59;5061099;28;20045;-74
2023/04/23 02:43:36;;;;;;;27.83;14.65;;;;;;;11.84;82.31;99053.31;5061123;28;20040;-74
2023/04/23 02:46:07;;;;;;;21.70;16.43;;;;;;;11.83;82.05;99057.16;5062092;28;20044;-74
2023/04/23 02:48:36;;;;;;;28.88;16.60;;;;;;;11.85;82.39;99053.03;5060896;28;20292;-74
2023/04/23 02:51:02;;;;;;;25.35;14.65;;;;;;;11.83;82.23;99057.16;5063739;28;20055;-74
2023/04/23 02:53:27;;;;;;;31.88;17.23;;;;;;;11.81;82.61;99051.16;5061236;28;20089;-74
2023/04/23 02:55:52;;;;;;;32.22;16.83;;;;;;;11.85;82.18;99053.03;5060646;28;20044;-74
2023/04/23 02:58:18;;;;;;;30.80;18.65;;;;;;;11.83;82.06;99054.41;5061488;28;20028;-74
2023/04/23 03:00:43;;;;;;;29.65;17.40;;;;;;;11.82;82.35;99061.00;5061007;28;20063;-75
2023/04/23 03:03:08;;;;;;;34.63;17.98;;;;;;;11.85;82.22;99060.41;5061139;28;20123;-75
2023/04/23 03:05:33;;;;;;;28.95;16.88;;;;;;;11.93;81.70;99056.22;5060211;28;20136;-75
2023/04/23 03:07:59;;;;;;;31.77;16.15;;;;;;;11.77;82.10;99065.41;5060901;28;20440;-74
2023/04/23 03:10:24;;;;;;;28.83;17.90;;;;;;;11.76;81.69;99063.75;5060414;28;20043;-74
2023/04/23 03:12:49;;;;;;;28.73;16.63;;;;;;;11.81;81.62;99062.09;5061095;28;20068;-74
2023/04/23 03:15:16;;;;;;;35.27;19.57;;;;;;;11.82;81.50;99059.06;5059069;28;20067;-74
2023/04/23 03:17:42;;;;;;;31.75;17.02;;;;;;;11.72;81.72;99059.97;5059957;28;20704;-75
2023/04/23 03:20:10;;;;;;;32.43;18.00;;;;;;;11.83;81.83;99054.41;5060470;28;20024;-75
2023/04/23 03:22:35;;;;;;;30.73;19.00;;;;;;;11.89;81.01;99050.53;5059978;28;20734;-74
2023/04/23 03:25:00;;;;;;;26.80;15.25;;;;;;;11.80;81.55;99053.06;5060363;28;20051;-74
2023/04/23 03:27:26;;;;;;;28.07;15.50;;;;;;;11.74;81.77;99052.31;5060714;28;20032;-75
2023/04/23 03:29:51;;;;;;;25.87;15.83;;;;;;;11.76;81.48;99055.56;5061208;28;20781;-74
2023/04/23 03:32:16;;;;;;;25.53;15.77;;;;;;;11.82;81.54;99045.41;5060782;28;20269;-74
2023/04/23 03:34:41;;;;;;;27.03;16.37;;;;;;;11.84;81.28;99047.88;5059613;28;20281;-74
2023/04/23 03:37:07;;;;;;;20.87;13.40;;;;;;;11.65;81.28;99043.16;5060338;28;20289;-74
2023/04/23 03:39:32;;;;;;;23.77;14.40;;;;;;;11.66;81.89;99036.56;5060282;28;20265;-75
2023/04/23 03:41:57;;;;;;;37.43;21.67;;;;;;;11.78;81.11;99039.72;5060423;28;20074;-74
2023/04/23 03:44:22;;;;;;;25.73;16.63;;;;;;;11.83;80.82;99038.03;5060073;28;20260;-74
2023/04/23 03:46:48;;;;;;;29.63;16.77;;;;;;;11.90;80.64;99030.28;5059559;28;20258;-74
2023/04/23 03:49:13;;;;;;;25.58;15.90;;;;;;;11.72;81.16;99035.41;5059566;28;20090;-75
2023/04/23 03:51:38;;;;;;;30.13;18.87;;;;;;;11.78;81.37;99036.97;5060053;28;20031;-74
2023/04/23 03:54:04;;;;;;;25.43;15.17;;;;;;;11.74;81.14;99033.19;5060335;28;20288;-74
2023/04/23 03:56:29;;;;;;;27.40;16.65;;;;;;;11.79;81.30;99029.59;5059465;28;20270;-75
2023/04/23 03:58:54;;;;;;;23.90;14.73;;;;;;;11.87;81.26;99030.88;5059718;28;20025;-75
2023/04/23 04:01:19;;;;;;;20.80;13.97;;;;;;;11.87;81.24;99026.25;5058922;28;20257;-75
2023/04/23 04:03:45;;;;;;;23.47;15.00;;;;;;;11.81;81.44;99023.84;5058063;28;20869;-75
2023/04/23 04:06:10;;;;;;;27.00;14.65;;;;;;;11.85;81.64;99025.72;5059477;28;20261;-74
2023/04/23 04:08:35;;;;;;;22.30;13.53;;;;;;;11.86;81.55;99018.31;5059331;28;20482;-74
2023/04/23 04:11:00;;;;;;;26.90;15.27;;;;;;;11.74;82.04;99016.00;5059443;28;20296;-74
2023/04/23 04:13:26;;;;;;;23.05;13.30;;;;;;;11.65;82.59;99013.13;5059073;28;20282;-75
2023/04/23 04:15:51;;;;;;;25.38;14.75;;;;;;;11.58;82.82;99020.81;5059315;28;20067;-74
2023/04/23 04:18:16;;;;;;;25.40;15.27;;;;;;;11.66;82.25;99012.81;5057968;28;20055;-74
2023/04/23 04:20:44;;;;;;;26.55;16.17;;;;;;;11.71;82.45;99017.41;5059362;28;20379;-75
2023/04/23 04:23:09;;;;;;;28.60;17.73;;;;;;;11.94;81.81;99011.41;5059101;28;20115;-74
2023/04/23 04:25:38;;;;;;;26.57;15.20;;;;;;;11.85;81.64;99014.78;5058689;28;20097;-75
2023/04/23 04:28:04;;;;;;;23.10;13.70;;;;;;;11.85;81.38;99011.25;5059523;28;20277;-75
2023/04/23 04:30:29;;;;;;;20.33;13.20;;;;;;;11.93;81.24;99007.03;5059605;28;20754;-74
2023/04/23 04:32:54;;;;;;;21.55;14.05;;;;;;;11.82;81.26;99004.44;5058888;28;21131;-74
2023/04/23 04:35:20;;;;;;;25.00;15.13;;;;;;;11.81;81.50;98999.28;5058550;28;20036;-73
2023/04/23 04:37:45;;;;;;;27.02;14.85;;;;;;;11.81;80.78;98997.34;5059320;28;20036;-74
2023/04/23 04:40:11;;;;;;;20.63;12.00;;;;;;;11.83;80.90;98997.06;5059166;28;20048;-74
2023/04/23 04:42:38;;;;;;;22.48;13.23;;;;;;;11.88;80.09;98999.72;5059543;28;20035;-75
2023/04/23 04:45:04;;;;;;;21.92;12.57;;;;;;;11.88;79.89;98999.72;5059535;28;20036;-74
2023/04/23 04:47:31;;;;;;;20.08;10.98;;;;;;;11.87;79.55;99009.03;5058368;28;20032;-74
2023/04/23 04:49:56;;;;;;;21.50;12.48;;;;;;;11.91;78.84;99010.91;5059422;28;20035;-75
2023/04/23 04:52:23;;;;;;;21.25;12.45;;;;;;;11.89;78.75;99004.91;5059310;28;20028;-74
2023/04/23 04:54:48;;;;;;;20.55;12.73;;;;;;;11.81;79.08;99011.00;5058953;28;20032;-75
2023/04/23 04:57:13;;;;;;;24.02;12.90;;;;;;;11.91;78.43;99004.59;5058533;28;20040;-74
2023/04/23 04:59:39;;;;;;;21.73;12.73;;;;;;;11.94;78.22;99004.00;5059093;28;20080;-74
2023/04/23 05:02:04;;;;;;;20.70;11.07;;;;;;;11.71;78.45;99006.50;5059323;28;20257;-74
2023/04/23 05:04:29;;;;;;;19.67;11.13;;;;;;;11.49;79.50;99007.00;5057883;28;20319;-75
2023/04/23 05:06:55;;;;;;;18.85;11.68;;;;;;;11.41;79.45;99008.47;5059392;28;21238;-74
2023/04/23 05:09:20;;;;;;;19.30;11.20;;;;;;;11.38;79.35;99004.38;5058422;28;20029;-74
2023/04/23 05:11:45;;;;;;;21.73;12.57;;;;;;;11.41;79.76;99000.28;5059132;28;20032;-74
2023/04/23 05:14:11;;;;;;;21.25;12.52;;;;;;;11.40;80.12;99006.81;5058748;28;20035;-74
2023/04/23 05:16:36;;;;;;;19.85;11.60;;;;;;;11.37;80.12;99015.59;5059270;28;20452;-74
2023/04/23 05:19:01;;;;;;;18.37;11.20;;;;;;;11.43;80.40;99012.50;5058352;28;20036;-75
2023/04/23 05:21:27;;;;;;;19.40;11.70;;;;;;;11.41;80.92;99013.91;5059736;28;20265;-74
2023/04/23 05:23:53;;;;;;;25.48;13.88;;;;;;;11.46;81.20;99022.03;5059479;28;20032;-74
2023/04/23 05:26:19;;;;;;;25.92;13.63;;;;;;;11.52;80.61;99025.53;5062472;28;20037;-74
2023/04/23 05:28:45;;;;;;;23.60;13.40;;;;;;;11.50;81.58;99025.81;5063007;28;20073;-75
2023/04/23 05:31:10;;;;;;;23.80;12.20;;;;;;;11.52;81.57;99026.34;5063368;28;20093;-74
2023/04/23 05:33:35;;;;;;;22.03;12.87;;;;;;;11.59;82.16;99014.28;5063683;28;20413;-74
2023/04/23 05:36:00;;;;;;;23.50;12.20;;;;;;;11.69;81.87;99019.63;5062495;28;20293;-74
2023/04/23 05:38:26;;;;;;;22.67;14.02;;;;;;;11.70;81.76;99026.69;5062594;28;20907;-75
2023/04/23 05:40:51;;;;;;;19.60;11.63;;;;;;;11.86;81.80;99023.78;5062954;28;20610;-75
2023/04/23 05:43:16;;;;;;;20.35;12.40;;;;;;;12.02;80.78;99027.16;5063409;28;20261;-74
2023/04/23 05:45:42;;;;;;;19.38;12.02;;;;;;;12.02;81.06;99030.69;5062984;28;20837;-74
2023/04/23 05:48:07;;;;;;;20.15;11.90;;;;;;;12.15;80.76;99028.38;5061973;28;21715;-74
2023/04/23 05:50:33;;;;;;;20.60;12.93;;;;;;;12.16;81.11;99018.25;5063120;28;20032;-75
2023/04/23 05:52:58;;;;;;;22.25;12.05;;;;;;;12.23;80.52;99016.78;5063313;28;20044;-75
2023/04/23 05:55:24;;;;;;;21.13;11.83;;;;;;;12.32;80.38;99016.94;5060980;28;20121;-75
2023/04/23 05:57:49;;;;;;;17.73;11.10;;;;;;;12.37;80.27;99024.25;5062328;28;20337;-79
2023/04/23 06:00:15;;;;;;;22.45;12.88;;;;;;;12.39;80.53;99019.31;5062602;28;20029;-77
2023/04/23 06:02:41;;;;;;;23.33;12.80;;;;;;;12.29;80.29;99019.44;5062812;28;20043;-75
2023/04/23 06:05:06;;;;;;;17.33;10.13;;;;;;;12.33;80.59;99020.47;5062002;28;20037;-77
2023/04/23 06:07:32;;;;;;;17.15;10.63;;;;;;;12.35;80.62;99013.63;5062334;28;20040;-75
2023/04/23 06:09:58;;;;;;;17.85;10.80;;;;;;;12.36;80.45;99015.25;5061717;28;20032;-76
2023/04/23 06:12:23;;;;;;;16.65;9.35;;;;;;;12.40;80.94;99012.75;5061965;28;20534;-75
2023/04/23 06:14:49;;;;;;;16.60;10.32;;;;;;;12.47;81.29;99009.63;5062049;28;20041;-75
2023/04/23 06:17:14;;;;;;;19.85;11.60;;;;;;;12.58;80.35;99010.28;5061473;28;20625;-76
2023/04/23 06:19:40;;;;;;;16.52;10.95;;;;;;;12.60;80.40;99005.34;5061781;28;20139;-76
2023/04/23 06:22:06;;;;;;;15.23;8.75;;;;;;;12.65;79.90;99009.94;5061382;28;20120;-76
2023/04/23 06:24:31;;;;;;;21.70;9.35;;;;;;;12.60;80.36;99008.88;5060548;28;20113;-76
2023/04/23 06:26:56;;;;;;;16.10;9.65;;;;;;;12.58;80.44;99007.56;5061991;28;20039;-76
2023/04/23 06:29:22;;;;;;;18.23;9.52;;;;;;;12.58;80.95;99010.28;5060683;28;20166;-76
2023/04/23 06:31:47;;;;;;;22.75;9.85;;;;;;;12.68;80.08;99012.06;5061267;28;20847;-76
2023/04/23 06:34:12;;;;;;;16.40;9.07;;;;;;;12.61;80.22;99012.41;5061204;28;20124;-77
2023/04/23 06:36:37;;;;;;;19.08;10.35;;;;;;;12.65;80.44;99012.66;5061446;28;20285;-77
2023/04/23 06:39:03;;;;;;;17.65;10.20;;;;;;;12.58;81.02;99004.81;5061623;28;20135;-76
2023/04/23 06:41:28;;;;;;;18.93;10.47;;;;;;;12.65;80.83;99020.88;5059778;28;20439;-76
2023/04/23 06:43:53;;;;;;;13.80;8.43;;;;;;;12.68;80.73;99007.41;5061215;28;20264;-75
2023/04/23 06:46:18;;;;;;;16.40;9.77;;;;;;;12.71;80.97;99006.78;5060345;28;20119;-75
2023/04/23 06:48:44;;;;;;;17.50;9.90;;;;;;;12.76;80.87;99002.34;5061980;28;20254;-75
2023/04/23 06:51:09;;;;;;;17.42;9.95;;;;;;;12.86;81.10;99002.19;5061231;28;20268;-75
2023/04/23 06:53:36;;;;;;;14.38;7.82;;;;;;;12.87;80.74;99006.56;5061310;28;20159;-77
2023/04/23 06:56:01;;;;;;;18.05;9.75;;;;;;;12.92;80.71;98997.44;5061026;28;20044;-75
2023/04/23 06:58:30;;;;;;;17.90;9.47;;;;;;;13.05;80.37;98993.13;5059745;28;20029;-75
2023/04/23 07:00:58;;;;;;;14.63;8.13;;;;;;;13.01;80.54;98995.66;5061873;28;20262;-76
2023/04/23 07:03:25;;;;;;;16.52;8.32;;;;;;;13.08;80.57;99001.53;5061286;28;20033;-74
2023/04/23 07:05:50;;;;;;;14.75;8.88;;;;;;;13.06;80.11;98995.56;5060937;28;20144;-75
2023/04/23 07:08:15;;;;;;;14.90;9.07;;;;;;;13.16;80.30;99002.78;5061470;28;20055;-75
2023/04/23 07:10:41;;;;;;;15.43;9.43;;;;;;;13.11;80.65;98993.84;5060894;28;20264;-74
2023/04/23 07:13:06;;;;;;;15.90;7.87;;;;;;;13.08;80.14;99000.72;5061611;28;20258;-75
2023/04/23 07:15:31;;;;;;;13.27;8.20;;;;;;;13.05;80.41;99001.34;5060726;28;20326;-81
2023/04/23 07:17:56;;;;;;;14.73;8.83;;;;;;;13.13;80.54;98995.19;5090493;28;20051;-76
2023/04/23 07:20:22;;;;;;;22.33;8.10;;;;;;;13.26;79.85;98998.25;5061010;28;20268;-75
2023/04/23 07:22:47;;;;;;;12.83;7.47;;;;;;;13.40;79.50;99001.78;5061617;28;21474;-75
2023/04/23 07:25:12;;;;;;;10.80;6.97;;;;;;;13.38;79.09;98998.53;5060661;28;20264;-78
2023/04/23 07:27:37;;;;;;;11.75;6.85;;;;;;;13.36;79.67;98989.84;5059490;28;20039;-80
2023/04/23 07:30:04;;;;;;;13.35;7.32;;;;;;;13.39;79.54;98991.97;5061424;28;20039;-81
2023/04/23 07:32:29;;;;;;;12.35;7.15;;;;;;;13.35;79.63;98990.94;5060888;28;20036;-78
2023/04/23 07:34:55;;;;;;;15.02;6.82;;;;;;;13.45;78.88;98992.69;5060962;28;20024;-80
2023/04/23 07:37:21;;;;;;;15.05;7.63;;;;;;;13.55;78.85;98980.75;5060828;28;20032;-79
2023/04/23 07:39:46;;;;;;;12.38;7.28;;;;;;;13.56;79.04;98982.38;5059889;28;21013;-80
2023/04/23 07:42:12;;;;;;;13.32;5.65;;;;;;;13.50;78.87;98981.66;5059998;28;20032;-79
2023/04/23 07:44:37;;;;;;;14.50;5.90;;;;;;;13.61;78.37;98979.53;5060367;28;20036;-82
2023/04/23 07:47:03;;;;;;;10.65;6.32;;;;;;;13.54;78.37;98976.41;5058152;28;20081;-81
2023/04/23 07:49:28;;;;;;;7.95;4.63;;;;;;;13.50;78.82;98967.97;5059151;28;20112;-79
2023/04/23 07:51:53;;;;;;;9.23;5.30;;;;;;;13.58;78.56;98966.47;5060153;28;20123;-83
2023/04/23 07:54:19;;;;;;;10.07;6.47;;;;;;;13.63;77.99;98971.81;5060322;28;20359;-83
2023/04/23 07:56:44;;;;;;;11.52;6.53;;;;;;;13.60;77.63;98972.44;5059921;28;20532;-81
2023/04/23 07:59:09;;;;;;;10.60;5.40;;;;;;;13.68;76.67;98964.63;5059662;28;20129;-75
2023/04/23 08:01:35;;;;;;;10.60;5.27;;;;;;;13.65;76.68;98964.13;5059573;28;20257;-73
2023/04/23 08:04:01;;;;;;;8.68;4.75;;;;;;;13.71;76.83;98966.75;5059254;28;20821;-72
2023/04/23 08:06:28;;;;;;;8.88;4.65;;;;;;;13.72;77.58;98973.84;5060119;28;20242;-72
2023/04/23 08:08:54;;;;;;;9.23;5.05;;;;;;;13.74;76.50;98971.63;5056590;28;20521;-74
2023/04/23 08:11:20;;;;;;;10.75;5.53;;;;;;;13.84;76.79;98971.41;5058795;28;20036;-74
2023/04/23 08:13:45;;;;;;;11.75;4.38;;;;;;;14.00;76.67;98957.38;5058452;28;20075;-74
2023/04/23 08:16:11;;;;;;;9.53;4.37;;;;;;;14.10;76.59;98956.34;5059259;28;20417;-73
2023/04/23 08:18:36;;;;;;;10.07;4.93;;;;;;;14.16;76.50;98954.28;5058515;28;20268;-79
2023/04/23 08:21:01;;;;;;;10.80;5.10;;;;;;;14.23;76.34;98949.19;5058711;28;20301;-79
2023/04/23 08:23:26;;;;;;;7.60;4.30;;;;;;;14.28;75.12;98943.59;5058183;28;20627;-79
2023/04/23 08:25:52;;;;;;;9.20;4.30;;;;;;;14.31;75.46;98953.13;5059150;28;20267;-80
2023/04/23 08:28:18;;;;;;;10.85;4.95;;;;;;;14.30;74.43;98951.53;5059246;28;20873;-79
2023/04/23 08:30:43;;;;;;;12.50;3.60;;;;;;;14.35;73.96;98949.47;5059914;28;20029;-75
2023/04/23 08:33:09;;;;;;;6.70;3.42;;;;;;;14.26;73.61;98948.56;5059613;28;20691;-75
2023/04/23 08:35:34;;;;;;;29.38;4.68;;;;;;;14.18;73.30;98938.34;5057395;28;21157;-75
2023/04/23 08:38:00;;;;;;;8.87;3.70;;;;;;;14.25;73.72;98944.22;5057090;28;21195;-77
2023/04/23 08:40:29;;;;;;;10.30;4.70;;;;;;;14.30;73.68;98944.09;5058732;28;20368;-77
2023/04/23 08:43:05;;;;;;;10.85;4.30;;;;;;;14.27;73.07;98938.41;5059311;28;20044;-74
2023/04/23 08:45:31;;;;;;;10.45;4.38;;;;;;;14.34;73.32;98945.09;5058457;28;20039;-75
2023/04/23 08:47:59;;;;;;;8.30;4.30;;;;;;;14.49;73.01;98945.84;5058662;28;20119;-75
2023/04/23 08:50:25;;;;;;;10.50;4.65;;;;;;;14.71;72.91;98941.47;5060305;28;20037;-75
2023/04/23 08:52:54;;;;;;;15.90;4.97;;;;;;;14.88;72.65;98950.97;5058595;28;20067;-75
2023/04/23 08:55:21;;;;;;;8.25;4.35;;;;;;;14.98;71.62;98949.91;5059524;28;20043;-75
2023/04/23 08:57:48;;;;;;;9.35;3.95;;;;;;;15.01;71.04;98952.81;5059357;28;20041;-76
2023/04/23 09:00:15;;;;;;;7.20;3.85;;;;;;;15.11;70.90;98940.75;5057576;28;20044;-75
2023/04/23 09:02:43;;;;;;;7.45;3.88;;;;;;;15.14;70.72;98942.06;5057824;28;20484;-73
2023/04/23 09:05:09;;;;;;;7.93;4.05;;;;;;;15.32;70.76;98942.13;5054666;28;20032;-74
2023/04/23 09:07:35;;;;;;;9.40;4.22;;;;;;;15.40;70.62;98942.19;5054660;28;20040;-75
2023/04/23 09:10:10;;;;;;;15.75;5.50;;;;;;;15.46;69.95;98947.56;5059867;28;20079;-75
2023/04/23 09:12:37;;;;;;;5.90;3.15;;;;;;;15.55;69.64;98944.81;5058437;28;20029;-75
2023/04/23 09:15:09;;;;;;;10.82;2.85;;;;;;;15.45;68.13;98940.41;5057390;28;20040;-73
2023/04/23 09:17:35;;;;;;;10.80;2.97;;;;;;;15.38;67.11;98938.13;5058688;28;20024;-74
2023/04/23 09:20:02;;;;;;;8.85;3.08;;;;;;;15.21;67.43;98931.47;5059054;28;20414;-75
2023/04/23 09:22:51;;;;;;;6.60;2.63;;;;;;;15.21;68.28;98925.16;5059160;28;20040;-77
2023/04/23 09:25:21;;;;;;;10.55;4.28;;;;;;;15.25;68.65;98934.38;5058360;28;20056;-81
2023/04/23 09:27:48;;;;;;;15.88;4.32;;;;;;;15.32;68.16;98922.91;5059262;28;20525;-79
2023/04/23 09:30:15;;;;;;;18.80;4.85;;;;;;;15.48;67.65;98921.38;5059068;28;20029;-81
2023/04/23 09:32:42;;;;;;;8.25;3.22;;;;;;;15.66;67.70;98917.88;5057796;28;20044;-78
2023/04/23 09:35:16;;;;;;;8.50;3.15;;;;;;;16.02;67.42;98903.06;5057141;28;20170;-80
2023/04/23 09:37:47;;;;;;;9.35;2.42;;;;;;;16.06;65.94;98911.47;5057135;28;20032;-75
2023/04/23 09:40:14;;;;;;;4.25;2.00;;;;;;;15.91;64.97;98909.97;5057510;28;20076;-76
2023/04/23 09:42:39;;;;;;;5.38;1.98;;;;;;;15.71;64.66;98907.53;5058317;28;20062;-74
2023/04/23 09:45:07;;;;;;;4.55;1.77;;;;;;;15.61;64.83;98913.31;5057817;28;20041;-77
2023/04/23 09:47:36;;;;;;;5.97;2.72;;;;;;;15.60;65.02;98914.47;5059186;28;20040;-79
2023/04/23 09:50:02;;;;;;;8.55;2.47;;;;;;;15.52;65.14;98914.09;5059191;28;20032;-79
2023/04/23 09:52:30;;;;;;;8.00;1.85;;;;;;;15.62;65.62;98925.94;5058695;28;21073;-76
2023/04/23 09:54:58;;;;;;;9.40;1.88;;;;;;;15.74;65.13;98919.81;5057922;28;20671;-73
2023/04/23 09:57:24;;;;;;;7.75;2.60;;;;;;;15.92;65.30;98915.16;5058355;28;20040;-77
2023/04/23 09:59:50;;;;;;;9.18;2.10;;;;;;;16.09;64.60;98905.31;5058096;28;20032;-77
2023/04/23 10:02:16;;;;;;;4.60;2.05;;;;;;;16.23;64.10;98907.94;5058425;28;20032;-77
2023/04/23 10:04:41;;;;;;;4.75;2.17;;;;;;;16.52;63.37;98905.63;5058145;28;20422;-80
2023/04/23 10:07:12;;;;;;;5.70;2.22;;;;;;;16.85;62.06;98910.59;5058824;28;20095;-77
2023/04/23 10:09:40;;;;;;;3.72;1.77;;;;;;;17.14;61.80;98906.31;5057519;28;20032;-80
2023/04/23 10:12:06;;;;;;;5.55;2.03;;;;;;;17.06;60.52;98909.88;5061147;28;20093;-81
2023/04/23 10:14:31;;;;;;;8.00;3.33;;;;;;;17.06;60.18;98903.56;5061739;28;20764;-82
2023/04/23 10:16:59;;;;;;;6.78;3.25;;;;;;;16.77;59.71;98903.16;5061736;28;20028;-78
2023/04/23 10:19:26;;;;;;;2.67;1.67;;;;;;;16.52;60.41;98902.88;5061469;28;20081;-75
2023/04/23 10:21:56;;;;;;;7.45;2.72;;;;;;;16.34;59.79;98897.41;5060656;28;20463;-78
2023/04/23 10:24:23;;;;;;;5.07;2.80;;;;;;;16.26;60.17;98900.97;5061353;28;20045;-79
2023/04/23 10:26:51;;;;;;;7.82;2.25;;;;;;;16.16;61.30;98897.41;5063304;28;20056;-78
2023/04/23 10:29:20;;;;;;;12.00;2.92;;;;;;;16.21;61.72;98897.22;5061492;28;20046;-76
2023/04/23 10:31:47;;;;;;;5.63;2.17;;;;;;;16.46;61.32;98902.22;5061605;28;20499;-77
2023/04/23 10:34:12;;;;;;;6.25;2.13;;;;;;;16.66;61.21;98892.50;5060499;28;20033;-77
2023/04/23 10:36:37;;;;;;;5.65;3.17;;;;;;;16.86;60.55;98887.41;5061901;28;20032;-80
2023/04/23 10:39:06;;;;;;;20.60;2.70;;;;;;;16.97;60.78;98878.78;5062006;28;20111;-77
2023/04/23 10:41:42;;;;;;;5.22;2.50;;;;;;;17.06;59.86;98879.59;5062275;28;20056;-77
2023/04/23 10:44:11;;;;;;;4.93;2.72;;;;;;;17.01;59.13;98868.75;5061178;28;20401;-78
2023/04/23 10:46:36;;;;;;;3.88;2.28;;;;;;;17.25;59.96;98867.34;5060371;28;20024;-76
2023/04/23 10:49:13;;;;;;;4.77;2.30;;;;;;;17.38;59.97;98860.00;5059522;28;20036;-78
2023/04/23 10:51:41;;;;;;;4.90;2.47;;;;;;;17.53;58.24;98858.63;5059899;28;20763;-80
2023/04/23 10:54:08;;;;;;;4.40;2.10;;;;;;;17.54;58.44;98857.47;5060474;28;20028;-78
2023/04/23 10:56:33;;;;;;;4.55;2.30;;;;;;;17.48;57.18;98854.13;5061689;28;20545;-78
2023/04/23 10:58:59;;;;;;;10.35;2.75;;;;;;;17.60;58.04;98853.38;5060564;28;20032;-80
2023/04/23 11:01:28;;;;;;;20.08;3.55;;;;;;;17.60;56.43;98847.06;5060259;28;20037;-85
2023/04/23 11:03:54;;;;;;;4.43;2.05;;;;;;;17.29;55.91;98851.78;5060919;28;20116;-83
2023/04/23 11:06:54;;;;;;;12.50;2.38;;;;;;;17.24;55.47;98833.53;5060828;28;20131;-80
2023/04/23 11:09:43;;;;;;;20.58;1.63;;;;;;;17.34;55.33;98848.03;5016722;28;20044;-83
2023/04/23 11:12:11;;;;;;;21.40;3.67;;;;;;;17.38;56.02;98833.28;5059223;28;20084;-82
2023/04/23 11:14:41;;;;;;;5.82;2.55;;;;;;;17.30;56.34;98839.66;5060739;28;20111;-81
2023/04/23 11:17:09;;;;;;;3.75;1.88;;;;;;;17.33;56.38;98836.22;5059845;28;20040;-77